Terminal Aerodrome Forecast
Issued by NWS Quad Cities IA IL

Current Version | Previous Version | Text Only | Print | Product List | Glossary On
Versions: 1 2 3 4 5 6 7 8 9 10 11 12 13 14 15
080
FTUS43 KDVN 281749
TAFMLI
TAF
KMLI 281749Z 2818/0118 18013KT P6SM BKN025
     FM282200 23007KT 4SM -TSRA OVC035CB
     FM010200 29007KT P6SM OVC040
     FM010900 29009KT 5SM -SHRA BR OVC015
     FM011400 29016G24KT P6SM OVC025=

USA.gov is the U.S. government's official web portal to all federal, state and local government web resources and services.